Terminal Aerodrome Forecast
Issued by NWS

Home | Current Version | Previous Version | Text Only | Print | Product List | Glossary Off
Versions: 1 2 3 4 5 6 7 8 9 10 11 12 13 14 15 16 17 18 19 20

000
FTUS43 KGRB 272300
TAFCWA
TAF
KCWA 272336Z 2800/2824 36014G20KT P6SM SCT025 BKN040
      TEMPO 2800/2801 SCT015 BKN030
     FM280200 36010KT P6SM SCT030
     FM280300 35008KT P6SM SKC
     FM281600 35010KT P6SM SCT040
      AMD LTD TO CLD VIS AND WIND 2803/2811=

USA.gov is the U.S. government's official web portal to all federal, state and local government web resources and services.